Time;durP1;ratioP1;P1;durP2;ratioP2;P2;SDS_P1;SDS_P2;PMS_P1;PMS_P2;Temp;Humidity;BMP_temperature;BMP_pressure;BME280_temperature;BME280_humidity;BME280_pressure;Samples;Min_cycle;Max_cycle;Signal;HPM_P1;HPM_P2
2022/03/01 00:00:19;;;;;;;4.37;2.85;;;;;;;2.34;43.80;102423.70;1742257;81;25868;-57
2022/03/01 00:02:48;;;;;;;5.97;3.02;;;;;;;2.33;43.82;102431.25;1742264;81;25696;-58
2022/03/01 00:05:15;;;;;;;5.97;3.15;;;;;;;2.31;43.95;102431.30;1742286;82;25815;-57
2022/03/01 00:07:42;;;;;;;8.70;3.25;;;;;;;2.25;43.92;102419.97;1741498;82;27468;-57
2022/03/01 00:10:11;;;;;;;11.38;2.87;;;;;;;2.27;43.80;102421.66;1742012;81;25754;-56
2022/03/01 00:12:37;;;;;;;5.25;2.83;;;;;;;2.24;43.84;102419.08;1741733;82;25811;-58
2022/03/01 00:15:06;;;;;;;7.05;2.92;;;;;;;2.24;43.81;102423.05;1745744;81;26195;-57
2022/03/01 00:17:34;;;;;;;6.30;2.90;;;;;;;2.22;43.48;102428.00;1752893;81;25264;-57
2022/03/01 00:20:01;;;;;;;5.60;2.92;;;;;;;2.18;43.79;102422.80;1753394;81;27475;-57
2022/03/01 00:22:28;;;;;;;7.33;3.58;;;;;;;2.17;43.59;102423.70;1711257;83;25792;-57
2022/03/01 00:24:55;;;;;;;7.22;3.15;;;;;;;2.16;43.90;102419.30;1710973;83;25677;-57
2022/03/01 00:27:21;;;;;;;4.30;2.62;;;;;;;2.14;43.88;102414.48;1711756;83;26139;-57
2022/03/01 00:29:48;;;;;;;5.87;3.05;;;;;;;2.08;44.05;102414.66;1711214;83;25807;-58
2022/03/01 00:32:15;;;;;;;8.68;3.15;;;;;;;2.08;44.08;102414.66;1710457;83;27422;-58
2022/03/01 00:34:42;;;;;;;12.75;3.52;;;;;;;2.06;43.94;102412.48;1752701;81;25807;-57
2022/03/01 00:37:09;;;;;;;8.95;3.45;;;;;;;2.07;43.86;102408.92;1753324;81;25806;-58
2022/03/01 00:39:36;;;;;;;9.73;3.77;;;;;;;2.04;44.12;102412.98;1710609;83;26086;-57
2022/03/01 00:42:04;;;;;;;8.33;3.70;;;;;;;2.04;44.04;102410.32;1736292;81;25803;-57
2022/03/01 00:44:31;;;;;;;7.90;4.15;;;;;;;1.99;44.01;102409.12;1749102;81;27485;-58
2022/03/01 00:46:58;;;;;;;9.15;3.87;;;;;;;1.97;44.18;102412.73;1752590;81;25727;-57
2022/03/01 00:49:27;;;;;;;8.35;4.22;;;;;;;1.94;44.33;102408.38;1753100;81;25742;-57
2022/03/01 00:51:54;;;;;;;13.53;5.25;;;;;;;1.93;44.19;102409.28;1752900;81;25971;-57
2022/03/01 00:54:21;;;;;;;8.45;4.03;;;;;;;1.90;44.44;102403.19;1711395;83;25670;-56
2022/03/01 00:56:50;;;;;;;7.62;3.95;;;;;;;1.90;44.70;102403.19;1752556;81;27344;-57
2022/03/01 00:59:17;;;;;;;11.43;4.85;;;;;;;1.90;44.63;102409.35;1711053;83;25786;-56
2022/03/01 01:01:44;;;;;;;6.33;3.65;;;;;;;1.90;44.62;102403.19;1752825;81;25739;-56
2022/03/01 01:04:11;;;;;;;10.32;4.10;;;;;;;1.91;44.53;102407.13;1710459;83;26074;-57
2022/03/01 01:06:38;;;;;;;11.78;4.10;;;;;;;1.88;44.65;102402.77;1752974;81;25946;-58
2022/03/01 01:09:04;;;;;;;7.75;3.95;;;;;;;1.90;44.47;102395.23;1752782;81;27484;-58
2022/03/01 01:11:32;;;;;;;12.18;4.47;;;;;;;1.87;44.57;102398.37;1711123;83;25694;-56
2022/03/01 01:13:59;;;;;;;10.30;3.80;;;;;;;1.86;44.56;102393.11;1711108;82;25764;-57
2022/03/01 01:16:26;;;;;;;9.33;4.40;;;;;;;1.87;44.84;102397.52;1752051;81;26147;-57
2022/03/01 01:18:52;;;;;;;10.25;4.17;;;;;;;1.86;44.77;102398.42;1705833;83;25911;-56
2022/03/01 01:21:20;;;;;;;8.00;3.65;;;;;;;1.84;44.83;102393.59;1750633;81;27482;-56
2022/03/01 01:23:47;;;;;;;9.63;3.47;;;;;;;1.85;44.91;102394.88;1705278;83;25708;-57
2022/03/01 01:26:14;;;;;;;10.75;4.50;;;;;;;1.86;44.99;102391.78;1750482;81;25730;-57
2022/03/01 01:28:41;;;;;;;7.58;3.58;;;;;;;1.83;45.02;102382.56;1751120;80;28258;-57
2022/03/01 01:31:08;;;;;;;8.73;4.25;;;;;;;1.81;45.14;102385.27;1705817;83;25433;-58
2022/03/01 01:33:35;;;;;;;12.20;4.12;;;;;;;1.79;45.01;102382.25;1750628;81;27516;-57
2022/03/01 01:36:01;;;;;;;8.03;3.90;;;;;;;1.79;45.11;102378.27;1750719;80;25756;-57
2022/03/01 01:38:28;;;;;;;10.48;3.80;;;;;;;1.79;44.96;102376.47;1751553;80;25774;-57
2022/03/01 01:40:55;;;;;;;6.55;4.08;;;;;;;1.78;45.18;102378.70;1750722;81;26106;-58
2022/03/01 01:43:22;;;;;;;8.00;4.08;;;;;;;1.75;45.32;102370.81;1758674;80;25779;-57
2022/03/01 01:45:49;;;;;;;10.82;4.25;;;;;;;1.74;45.28;102383.69;1761271;81;27891;-57
2022/03/01 01:48:16;;;;;;;6.58;3.47;;;;;;;1.72;45.38;102374.89;1761979;80;25720;-56
2022/03/01 01:50:43;;;;;;;7.53;3.33;;;;;;;1.71;45.34;102375.33;1761942;80;25645;-57
2022/03/01 01:53:10;;;;;;;6.58;3.85;;;;;;;1.68;45.28;102374.54;1762071;80;26756;-57
2022/03/01 01:55:37;;;;;;;6.65;3.37;;;;;;;1.66;45.35;102376.38;1762311;80;25705;-58
2022/03/01 01:58:04;;;;;;;8.75;3.67;;;;;;;1.65;45.53;102374.64;1762054;80;27463;-57
2022/03/01 02:00:31;;;;;;;5.95;3.20;;;;;;;1.63;45.54;102379.11;1761959;81;25497;-58
2022/03/01 02:02:58;;;;;;;9.55;3.15;;;;;;;1.64;45.53;102372.89;1761985;81;25752;-58
2022/03/01 02:05:27;;;;;;;5.65;3.25;;;;;;;1.64;45.38;102371.56;1762147;80;26089;-58
2022/03/01 02:07:55;;;;;;;8.55;3.50;;;;;;;1.62;45.71;102374.70;1761844;81;25897;-58
2022/03/01 02:10:23;;;;;;;6.62;3.20;;;;;;;1.59;45.69;102370.35;1761861;81;27464;-58
2022/03/01 02:12:50;;;;;;;5.15;3.10;;;;;;;1.55;45.98;102376.20;1762116;80;25815;-58
2022/03/01 02:15:17;;;;;;;7.05;2.95;;;;;;;1.56;45.67;102373.08;1759462;81;25735;-58
2022/03/01 02:17:45;;;;;;;5.25;3.27;;;;;;;1.53;46.01;102377.12;1741397;82;26951;-58
2022/03/01 02:20:20;;;;;;;6.92;3.00;;;;;;;1.50;46.09;102371.44;1741377;82;25787;-58
2022/03/01 02:22:54;;;;;;;7.70;3.75;;;;;;;1.48;46.13;102375.91;1741420;82;27538;-58
2022/03/01 02:25:22;;;;;;;7.53;3.15;;;;;;;1.45;46.00;102376.44;1741577;82;25708;-58
2022/03/01 02:27:49;;;;;;;7.45;3.87;;;;;;;1.43;46.30;102379.61;1741247;82;25783;-58
2022/03/01 02:30:16;;;;;;;7.37;3.17;;;;;;;1.41;46.36;102378.30;1741510;82;26760;-58
2022/03/01 02:32:43;;;;;;;7.10;3.30;;;;;;;1.40;46.42;102374.79;1741310;82;25700;-58
2022/03/01 02:35:14;;;;;;;7.62;3.20;;;;;;;1.35;46.41;102372.68;1741449;82;28204;-58
2022/03/01 02:37:42;;;;;;;9.00;3.35;;;;;;;1.35;46.53;102377.12;1741213;82;25855;-58
2022/03/01 02:40:11;;;;;;;7.30;3.77;;;;;;;1.35;46.52;102381.97;1741348;81;25485;-58
2022/03/01 02:42:40;;;;;;;13.38;3.52;;;;;;;1.35;46.65;102387.73;1738896;81;26072;-58
2022/03/01 02:45:11;;;;;;;6.15;3.85;;;;;;;1.34;46.71;102376.70;1751289;81;25752;-58
2022/03/01 02:47:38;;;;;;;7.72;3.40;;;;;;;1.33;46.65;102370.55;1741724;81;28110;-58
2022/03/01 02:50:07;;;;;;;10.80;3.87;;;;;;;1.29;46.78;102373.31;1741322;82;25630;-58
2022/03/01 02:52:35;;;;;;;6.53;3.35;;;;;;;1.27;46.84;102373.80;1741759;81;25812;-58
2022/03/01 02:55:05;;;;;;;7.03;3.45;;;;;;;1.27;46.81;102375.97;1741631;82;26045;-58
2022/03/01 02:57:31;;;;;;;7.47;3.77;;;;;;;1.23;47.08;102371.67;1741384;82;25692;-58
2022/03/01 02:59:58;;;;;;;10.40;3.95;;;;;;;1.19;47.20;102377.50;1741358;82;29663;-58
2022/03/01 03:02:25;;;;;;;5.72;3.52;;;;;;;1.19;47.40;102375.28;1741228;82;25466;-58
2022/03/01 03:04:52;;;;;;;7.00;3.15;;;;;;;1.18;47.57;102366.47;1741409;82;25727;-58
2022/03/01 03:07:18;;;;;;;10.78;3.70;;;;;;;1.17;47.30;102368.70;1741355;82;26087;-58
2022/03/01 03:09:45;;;;;;;8.45;3.87;;;;;;;1.19;47.47;102370.88;1741722;81;25935;-58
2022/03/01 03:12:13;;;;;;;5.70;2.65;;;;;;;1.20;47.40;102365.11;1741298;82;27548;-58
2022/03/01 03:14:39;;;;;;;6.53;3.50;;;;;;;1.19;47.70;102364.68;1741509;82;25774;-58
2022/03/01 03:17:07;;;;;;;5.70;3.77;;;;;;;1.17;47.70;102362.08;1755589;80;25734;-57
2022/03/01 03:19:33;;;;;;;5.05;3.52;;;;;;;1.15;47.78;102358.58;1760305;81;26083;-59
2022/03/01 03:22:00;;;;;;;10.23;3.90;;;;;;;1.13;47.86;102357.73;1759745;81;25747;-57
2022/03/01 03:24:27;;;;;;;6.17;3.45;;;;;;;1.09;48.00;102354.30;1759157;81;27544;-58
2022/03/01 03:26:55;;;;;;;7.22;4.00;;;;;;;1.09;48.21;102357.41;1759577;81;26439;-57
2022/03/01 03:29:21;;;;;;;10.10;4.00;;;;;;;1.10;48.43;102349.88;1760055;81;25669;-57
2022/03/01 03:31:49;;;;;;;9.28;3.40;;;;;;;1.07;48.61;102347.30;1759815;81;26112;-58
2022/03/01 03:34:16;;;;;;;12.10;3.50;;;;;;;1.05;48.48;102349.09;1759181;81;25819;-59
2022/03/01 03:36:43;;;;;;;8.83;3.77;;;;;;;1.03;48.79;102337.69;1759921;81;28183;-59
2022/03/01 03:39:12;;;;;;;8.18;4.15;;;;;;;1.01;48.81;102342.14;1760063;81;25494;-59
2022/03/01 03:41:40;;;;;;;8.55;4.15;;;;;;;0.98;48.86;102331.60;1756169;81;25783;-58
2022/03/01 03:44:07;;;;;;;6.78;2.92;;;;;;;0.96;49.09;102331.66;1727639;82;26778;-59
2022/03/01 03:46:35;;;;;;;14.43;4.22;;;;;;;0.98;49.55;102334.25;1758497;81;25766;-58
2022/03/01 03:49:03;;;;;;;5.78;2.75;;;;;;;0.97;49.39;102336.48;1759863;81;28192;-58
2022/03/01 03:51:31;;;;;;;5.78;3.80;;;;;;;0.93;49.54;102329.06;1759091;81;25465;-58
2022/03/01 03:53:58;;;;;;;7.12;3.85;;;;;;;0.92;49.60;102325.55;1758868;81;25768;-59
2022/03/01 03:56:24;;;;;;;8.38;3.98;;;;;;;0.88;49.96;102329.16;1759840;81;26167;-58
2022/03/01 03:58:51;;;;;;;8.03;3.85;;;;;;;0.89;49.82;102336.21;1759746;81;25775;-58
2022/03/01 04:01:18;;;;;;;12.78;3.95;;;;;;;0.89;50.14;102334.89;1759121;81;27471;-59
2022/03/01 04:03:45;;;;;;;7.95;3.60;;;;;;;0.86;49.98;102326.14;1759109;81;25958;-59
2022/03/01 04:06:13;;;;;;;5.33;3.05;;;;;;;0.84;50.33;102322.64;1759073;81;25627;-58
2022/03/01 04:08:40;;;;;;;9.78;3.75;;;;;;;0.78;50.47;102327.19;1759625;81;26093;-59
2022/03/01 04:11:07;;;;;;;8.60;4.50;;;;;;;0.73;50.32;102320.25;1759959;81;25839;-58
2022/03/01 04:13:34;;;;;;;8.53;4.47;;;;;;;0.76;50.53;102328.14;1759836;81;27528;-58
2022/03/01 04:16:02;;;;;;;9.08;4.65;;;;;;;0.78;50.58;102327.63;1759479;81;26248;-58
2022/03/01 04:18:29;;;;;;;9.25;4.50;;;;;;;0.80;50.31;102327.61;1759551;81;25730;-58
2022/03/01 04:20:57;;;;;;;7.65;4.22;;;;;;;0.82;50.37;102323.12;1759848;81;26482;-58
2022/03/01 04:23:24;;;;;;;11.12;5.00;;;;;;;0.82;50.43;102322.69;1759637;81;25747;-58
2022/03/01 04:25:51;;;;;;;7.75;4.60;;;;;;;0.81;50.45;102318.30;1759831;81;27506;-57
2022/03/01 04:28:18;;;;;;;7.45;4.15;;;;;;;0.79;50.67;102318.77;1759248;81;27241;-57
2022/03/01 04:30:45;;;;;;;7.87;4.17;;;;;;;0.79;50.70;102321.42;1759935;81;25778;-57
2022/03/01 04:33:12;;;;;;;10.35;5.10;;;;;;;0.80;50.90;102327.61;1759868;81;26095;-57
2022/03/01 04:35:39;;;;;;;11.40;5.20;;;;;;;0.77;51.02;102320.14;1759035;81;25807;-57
2022/03/01 04:38:08;;;;;;;11.38;5.83;;;;;;;0.73;51.26;102315.81;1760015;81;28715;-58
2022/03/01 04:40:35;;;;;;;14.60;5.45;;;;;;;0.71;51.58;102312.34;1759700;81;25711;-59
2022/03/01 04:43:02;;;;;;;9.38;5.15;;;;;;;0.69;51.49;102317.23;1747794;81;25685;-58
2022/03/01 04:45:30;;;;;;;7.50;4.12;;;;;;;0.70;51.58;102319.88;1755050;81;26128;-57
2022/03/01 04:47:59;;;;;;;11.53;5.30;;;;;;;0.67;51.50;102324.38;1762577;80;25762;-57
2022/03/01 04:50:27;;;;;;;8.33;4.75;;;;;;;0.67;51.60;102327.02;1761999;81;27470;-57
2022/03/01 04:52:54;;;;;;;10.20;4.83;;;;;;;0.66;51.62;102322.16;1762779;80;25786;-57
2022/03/01 04:55:21;;;;;;;8.05;4.22;;;;;;;0.67;51.47;102333.17;1761710;80;25817;-57
2022/03/01 04:57:48;;;;;;;10.18;4.97;;;;;;;0.68;51.87;102330.95;1761657;80;26079;-57
2022/03/01 05:00:15;;;;;;;6.00;3.77;;;;;;;0.65;51.58;102331.47;1761932;80;25916;-57
2022/03/01 05:02:45;;;;;;;17.57;5.97;;;;;;;0.68;52.11;102324.76;1761997;80;28236;-57
2022/03/01 05:05:13;;;;;;;10.85;5.35;;;;;;;0.65;52.14;102326.17;1761897;81;25774;-58
2022/03/01 05:07:44;;;;;;;13.68;6.15;;;;;;;0.62;52.17;102327.97;1762010;80;25510;-58
2022/03/01 05:10:17;;;;;;;12.45;5.35;;;;;;;0.64;52.00;102331.91;1761865;81;26312;-58
2022/03/01 05:12:52;;;;;;;11.30;5.30;;;;;;;0.65;51.81;102329.67;1761734;81;25795;-58
2022/03/01 05:15:21;;;;;;;15.18;5.20;;;;;;;0.64;52.02;102332.38;1762019;81;27535;-58
2022/03/01 05:17:49;;;;;;;13.45;5.17;;;;;;;0.65;51.87;102325.70;1747029;80;25676;-58
2022/03/01 05:20:18;;;;;;;13.30;5.40;;;;;;;0.67;51.78;102328.34;1741510;82;25799;-57
2022/03/01 05:22:46;;;;;;;11.38;6.08;;;;;;;0.69;51.98;102332.69;1741320;82;26097;-58
2022/03/01 05:25:17;;;;;;;13.70;6.17;;;;;;;0.73;51.93;102331.70;1741502;82;25740;-57
2022/03/01 05:27:48;;;;;;;12.78;5.17;;;;;;;0.74;51.76;102330.80;1741413;82;27471;-58
2022/03/01 05:30:17;;;;;;;10.90;4.50;;;;;;;0.81;51.69;102330.69;1741627;81;25798;-58
2022/03/01 05:32:46;;;;;;;8.28;4.62;;;;;;;0.81;51.62;102332.01;1741519;82;25779;-57
2022/03/01 05:35:16;;;;;;;12.40;5.15;;;;;;;0.80;51.63;102332.45;1741396;82;26125;-58
2022/03/01 05:37:47;;;;;;;13.15;5.33;;;;;;;0.86;51.66;102338.92;1741416;81;25975;-56
2022/03/01 05:40:14;;;;;;;13.35;5.45;;;;;;;0.82;51.38;102338.59;1741728;82;27477;-58
2022/03/01 05:42:41;;;;;;;18.55;5.00;;;;;;;0.84;51.40;102342.52;1718420;81;25775;-58
2022/03/01 05:45:11;;;;;;;9.65;4.40;;;;;;;0.86;51.62;102342.03;1716543;81;25837;-57
2022/03/01 05:47:40;;;;;;;10.63;4.62;;;;;;;0.84;51.47;102342.08;1741752;82;26851;-57
2022/03/01 05:50:09;;;;;;;12.45;5.92;;;;;;;0.85;51.47;102345.13;1741270;82;25837;-57
2022/03/01 05:52:37;;;;;;;15.63;6.00;;;;;;;0.86;51.60;102340.71;1741707;82;27441;-56
2022/03/01 05:55:07;;;;;;;13.28;5.83;;;;;;;0.86;51.64;102340.24;1741201;82;25723;-58
2022/03/01 05:57:35;;;;;;;10.85;5.95;;;;;;;0.89;51.67;102344.16;1741510;81;25843;-58
2022/03/01 06:00:06;;;;;;;10.85;5.55;;;;;;;0.91;51.86;102337.05;1741321;82;26824;-58
2022/03/01 06:02:35;;;;;;;11.60;5.55;;;;;;;0.93;51.85;102341.87;1741797;82;25498;-58
2022/03/01 06:05:02;;;;;;;11.50;5.70;;;;;;;0.96;52.18;102346.66;1741411;82;28213;-58
2022/03/01 06:07:29;;;;;;;10.38;5.85;;;;;;;0.93;52.02;102343.20;1741715;81;25764;-58
2022/03/01 06:09:56;;;;;;;19.35;6.35;;;;;;;0.93;52.13;102352.47;1741411;82;25790;-57
2022/03/01 06:12:23;;;;;;;10.08;5.17;;;;;;;0.96;52.14;102343.58;1741296;82;26756;-57
2022/03/01 06:14:50;;;;;;;9.65;5.17;;;;;;;0.98;51.97;102351.48;1741197;82;25719;-57
2022/03/01 06:17:17;;;;;;;10.10;5.22;;;;;;;1.00;52.07;102345.23;1741361;79;27467;-57
2022/03/01 06:19:43;;;;;;;17.37;5.53;;;;;;;1.03;51.89;102343.84;1741168;82;25530;-57
2022/03/01 06:22:11;;;;;;;14.15;5.33;;;;;;;1.07;51.71;102359.22;1741385;82;25680;-57
2022/03/01 06:24:43;;;;;;;10.45;3.87;;;;;;;1.10;51.58;102353.86;1741338;82;26221;-58
2022/03/01 06:27:10;;;;;;;9.28;4.22;;;;;;;1.11;51.53;102355.61;1741263;81;25824;-58
2022/03/01 06:29:38;;;;;;;11.93;5.30;;;;;;;1.08;51.55;102358.31;1741276;82;27497;-57
2022/03/01 06:32:06;;;;;;;10.95;5.60;;;;;;;1.08;51.46;102361.82;1741665;82;25824;-57
2022/03/01 06:34:34;;;;;;;11.43;5.47;;;;;;;1.07;51.35;102364.08;1741738;82;25763;-57
2022/03/01 06:37:01;;;;;;;14.00;5.37;;;;;;;1.09;51.41;102361.39;1741268;82;26816;-57
2022/03/01 06:39:28;;;;;;;12.45;4.45;;;;;;;1.07;51.41;102359.22;1739049;81;25704;-59
2022/03/01 06:41:55;;;;;;;8.13;3.98;;;;;;;1.06;51.52;102358.36;1684034;83;27528;-59
2022/03/01 06:44:22;;;;;;;10.63;5.55;;;;;;;1.05;51.63;102366.33;1739271;81;25756;-58
2022/03/01 06:46:49;;;;;;;15.65;4.97;;;;;;;1.03;51.57;102366.84;1741677;81;25755;-58
2022/03/01 06:49:15;;;;;;;13.72;5.00;;;;;;;1.04;51.84;102363.25;1741976;82;26764;-58
2022/03/01 06:51:42;;;;;;;13.32;4.80;;;;;;;1.04;51.75;102368.55;1741482;82;25791;-58
2022/03/01 06:54:09;;;;;;;9.68;5.08;;;;;;;1.02;51.95;102371.72;1741243;82;27490;-58
2022/03/01 06:56:36;;;;;;;15.83;4.85;;;;;;;1.01;51.90;102367.32;1741589;82;25812;-58
2022/03/01 06:59:02;;;;;;;13.45;6.00;;;;;;;1.00;51.87;102366.43;1741445;82;25751;-58
2022/03/01 07:01:29;;;;;;;10.18;4.90;;;;;;;1.05;51.86;102363.24;1741224;82;26827;-58
2022/03/01 07:03:56;;;;;;;13.45;4.65;;;;;;;1.05;51.85;102368.98;1741628;82;25651;-58
2022/03/01 07:06:23;;;;;;;10.88;5.35;;;;;;;1.05;51.94;102363.24;1741773;82;27465;-58
2022/03/01 07:08:50;;;;;;;10.38;6.33;;;;;;;1.05;52.08;102364.56;1741340;82;25664;-57
2022/03/01 07:11:16;;;;;;;7.17;3.58;;;;;;;1.04;51.88;102361.92;1741555;82;25812;-57
2022/03/01 07:13:44;;;;;;;9.43;5.00;;;;;;;1.12;52.18;102357.78;1741376;82;26022;-57
2022/03/01 07:16:11;;;;;;;13.80;5.17;;;;;;;1.09;52.35;102353.44;1741574;82;25905;-58
2022/03/01 07:18:37;;;;;;;11.53;5.08;;;;;;;1.06;52.31;102354.82;1758754;80;27472;-57
2022/03/01 07:21:04;;;;;;;13.98;4.58;;;;;;;1.09;52.50;102339.72;1762059;81;25712;-58
2022/03/01 07:23:31;;;;;;;12.07;4.60;;;;;;;1.05;52.59;102347.77;1762325;81;25648;-58
2022/03/01 07:25:58;;;;;;;11.10;5.22;;;;;;;1.02;52.64;102350.52;1762160;81;26510;-57
2022/03/01 07:28:27;;;;;;;17.02;4.78;;;;;;;1.00;52.79;102341.25;1762368;81;25780;-58
2022/03/01 07:30:55;;;;;;;11.28;4.62;;;;;;;1.03;52.89;102341.19;1762164;81;27485;-58
2022/03/01 07:33:22;;;;;;;9.50;4.92;;;;;;;1.03;53.21;102342.52;1762559;81;25921;-58
2022/03/01 07:35:49;;;;;;;15.23;4.53;;;;;;;1.01;53.17;102337.70;1762277;81;25846;-58
2022/03/01 07:38:16;;;;;;;12.03;5.22;;;;;;;0.98;53.44;102342.20;1762427;81;26066;-59
2022/03/01 07:40:44;;;;;;;11.70;6.17;;;;;;;0.97;53.54;102341.34;1762421;81;25775;-59
2022/03/01 07:43:11;;;;;;;11.53;4.58;;;;;;;1.00;53.92;102341.25;1725291;80;27524;-58
2022/03/01 07:45:38;;;;;;;8.35;5.10;;;;;;;1.00;53.84;102333.77;1734154;82;25735;-58
2022/03/01 07:48:05;;;;;;;14.35;5.05;;;;;;;1.03;53.87;102345.64;1734583;81;25795;-59
2022/03/01 07:50:34;;;;;;;8.90;4.80;;;;;;;1.05;54.30;102322.16;1734017;82;26764;-59
2022/03/01 07:53:01;;;;;;;12.28;5.42;;;;;;;1.07;54.37;102330.95;1733450;82;25716;-59
2022/03/01 07:55:30;;;;;;;18.67;5.53;;;;;;;1.01;54.63;102336.38;1733674;82;27480;-58
2022/03/01 07:57:57;;;;;;;13.30;5.47;;;;;;;0.99;54.60;102334.67;1733438;82;25791;-58
2022/03/01 08:00:24;;;;;;;21.50;5.42;;;;;;;1.00;54.84;102334.63;1734471;82;25764;-58
2022/03/01 08:02:52;;;;;;;10.98;4.65;;;;;;;0.99;55.15;102337.33;1735287;82;26104;-59
2022/03/01 08:05:19;;;;;;;13.95;4.75;;;;;;;0.99;55.42;102337.33;1734892;82;25737;-59
2022/03/01 08:07:46;;;;;;;9.93;4.80;;;;;;;0.95;55.42;102347.12;1734832;81;27473;-58
2022/03/01 08:10:13;;;;;;;13.50;3.85;;;;;;;0.94;55.83;102355.52;1735476;81;25729;-58
2022/03/01 08:12:40;;;;;;;10.40;5.47;;;;;;;0.90;56.13;102351.64;1734605;82;25793;-59
2022/03/01 08:15:09;;;;;;;8.38;4.30;;;;;;;0.81;56.28;102359.36;1715382;82;26710;-59
2022/03/01 08:17:35;;;;;;;17.15;5.47;;;;;;;0.82;56.51;102359.78;1742607;80;25816;-56
2022/03/01 08:20:06;;;;;;;11.57;5.25;;;;;;;0.83;56.96;102356.66;1748673;81;28098;-57
2022/03/01 08:22:33;;;;;;;14.05;5.35;;;;;;;0.77;56.82;102354.59;1722884;82;25804;-57
2022/03/01 08:25:00;;;;;;;12.75;4.95;;;;;;;0.71;56.66;102369.30;1741493;81;26320;-58
2022/03/01 08:27:27;;;;;;;11.60;5.03;;;;;;;0.69;56.84;102364.48;1764469;81;26087;-58
2022/03/01 08:29:54;;;;;;;10.23;4.85;;;;;;;0.68;56.75;102370.68;1767548;81;25813;-57
2022/03/01 08:32:20;;;;;;;10.63;6.05;;;;;;;0.71;56.63;102372.37;1766362;81;27499;-57
2022/03/01 08:34:48;;;;;;;20.65;4.97;;;;;;;0.72;56.54;102380.75;1766089;81;25799;-57
2022/03/01 08:37:14;;;;;;;14.45;5.10;;;;;;;0.76;56.70;102372.70;1749164;81;25786;-57
2022/03/01 08:39:41;;;;;;;9.60;4.70;;;;;;;0.76;56.69;102370.06;1737765;82;25728;-57
2022/03/01 08:42:08;;;;;;;7.92;4.75;;;;;;;0.79;56.75;102370.44;1737959;81;25455;-57
2022/03/01 08:44:35;;;;;;;12.98;5.35;;;;;;;0.80;56.50;102377.95;1762680;81;27531;-58
2022/03/01 08:47:03;;;;;;;15.32;5.50;;;;;;;0.83;56.56;102377.86;1757615;81;25941;-57
2022/03/01 08:49:30;;;;;;;12.75;5.17;;;;;;;0.87;56.80;102376.44;1758081;81;25723;-57
2022/03/01 08:51:57;;;;;;;11.60;5.15;;;;;;;0.87;56.83;102375.58;1757944;81;26819;-57
2022/03/01 08:54:24;;;;;;;12.80;5.00;;;;;;;0.90;56.99;102371.52;1758075;81;25669;-57
2022/03/01 08:56:51;;;;;;;12.00;5.47;;;;;;;0.88;56.89;102367.58;1758034;81;27518;-57
2022/03/01 08:59:19;;;;;;;11.00;6.00;;;;;;;0.88;56.95;102366.27;1757736;81;26203;-58
2022/03/01 09:01:46;;;;;;;9.78;5.03;;;;;;;0.86;57.63;102373.36;1757993;81;25820;-57
2022/03/01 09:04:14;;;;;;;10.70;5.25;;;;;;;0.81;57.94;102367.31;1761082;81;26114;-57
2022/03/01 09:06:40;;;;;;;8.35;4.83;;;;;;;0.79;58.27;102367.78;1767419;79;25698;-57
2022/03/01 09:09:08;;;;;;;11.50;4.70;;;;;;;0.76;58.29;102374.50;1767454;81;27476;-57
2022/03/01 09:11:35;;;;;;;9.93;4.70;;;;;;;0.80;58.16;102373.51;1767227;81;25742;-57
2022/03/01 09:14:02;;;;;;;11.22;5.35;;;;;;;0.82;58.09;102374.36;1767270;80;25768;-57
2022/03/01 09:16:30;;;;;;;8.95;4.75;;;;;;;0.84;58.29;102372.98;1767566;81;26713;-57
2022/03/01 09:18:57;;;;;;;8.23;4.53;;;;;;;0.83;58.52;102369.48;1762433;81;25790;-57
2022/03/01 09:21:24;;;;;;;13.08;4.85;;;;;;;0.85;58.71;102368.11;1759097;81;27455;-58
2022/03/01 09:23:51;;;;;;;11.35;6.45;;;;;;;0.82;58.71;102365.52;1759705;81;25744;-57
2022/03/01 09:26:18;;;;;;;12.68;5.72;;;;;;;0.81;58.79;102365.13;1759825;81;25470;-57
2022/03/01 09:28:44;;;;;;;12.60;5.37;;;;;;;0.84;59.05;102371.66;1759447;81;27052;-57
2022/03/01 09:31:12;;;;;;;14.43;5.72;;;;;;;0.84;59.24;102367.69;1759870;81;25794;-57
2022/03/01 09:33:45;;;;;;;12.75;7.22;;;;;;;0.84;59.31;102366.36;1732160;81;28128;-58
2022/03/01 09:36:14;;;;;;;10.03;5.90;;;;;;;0.84;59.46;102369.02;1731994;82;25760;-57
2022/03/01 09:38:42;;;;;;;10.60;5.15;;;;;;;0.80;59.47;102365.56;1751734;81;25486;-57
2022/03/01 09:41:12;;;;;;;11.78;6.47;;;;;;;0.82;59.86;102363.76;1754903;81;26194;-57
2022/03/01 09:43:41;;;;;;;14.95;5.55;;;;;;;0.76;59.73;102367.88;1736687;80;25804;-57
2022/03/01 09:46:09;;;;;;;14.47;5.47;;;;;;;0.78;59.72;102364.28;1720912;83;27442;-57
2022/03/01 09:48:37;;;;;;;14.73;5.72;;;;;;;0.80;59.93;102362.05;1756982;81;25731;-57
2022/03/01 09:51:08;;;;;;;8.85;4.58;;;;;;;0.80;60.01;102354.97;1754012;80;25795;-57
2022/03/01 09:53:38;;;;;;;8.78;5.30;;;;;;;0.81;59.84;102357.18;1760268;79;26054;-57
2022/03/01 09:56:07;;;;;;;9.38;5.65;;;;;;;0.83;60.63;102349.61;1762022;80;25815;-57
2022/03/01 09:58:35;;;;;;;10.65;5.00;;;;;;;0.83;60.23;102348.28;1761989;81;27446;-58
2022/03/01 10:01:03;;;;;;;14.87;7.37;;;;;;;0.84;60.38;102350.03;1760115;80;25881;-58
2022/03/01 10:03:34;;;;;;;12.30;5.62;;;;;;;0.86;60.75;102344.69;1758909;81;25776;-58
2022/03/01 10:06:12;;;;;;;15.48;6.35;;;;;;;0.86;60.88;102340.24;1759736;81;26083;-59
2022/03/01 10:08:40;;;;;;;10.18;5.53;;;;;;;0.90;60.97;102344.58;1760810;81;25869;-58
2022/03/01 10:11:08;;;;;;;11.10;4.72;;;;;;;0.94;61.29;102337.43;1759294;81;27938;-59
2022/03/01 10:13:40;;;;;;;8.13;5.30;;;;;;;0.96;61.37;102329.00;1759846;81;25831;-58
2022/03/01 10:16:14;;;;;;;9.73;6.03;;;;;;;0.90;60.96;102330.01;1759138;81;25783;-58
2022/03/01 10:18:52;;;;;;;12.07;5.20;;;;;;;0.90;61.15;102327.80;1759044;81;26889;-57
2022/03/01 10:21:22;;;;;;;10.60;5.85;;;;;;;0.91;61.29;102320.27;1759733;81;25630;-58
2022/03/01 10:23:53;;;;;;;10.78;5.20;;;;;;;0.90;61.34;102319.84;1733408;81;27456;-59
2022/03/01 10:26:27;;;;;;;17.48;5.47;;;;;;;0.88;61.44;102315.06;1759617;81;25766;-57
2022/03/01 10:28:57;;;;;;;11.73;5.83;;;;;;;0.88;61.51;102319.89;1759271;80;25501;-56
2022/03/01 10:31:30;;;;;;;11.93;5.62;;;;;;;0.89;61.85;102299.12;1758345;80;26078;-57
2022/03/01 10:34:08;;;;;;;14.23;6.65;;;;;;;0.96;61.88;102301.61;1758992;80;25648;-57
2022/03/01 10:36:48;;;;;;;13.03;6.12;;;;;;;0.88;61.95;102297.84;1753568;80;27841;-57
2022/03/01 10:39:19;;;;;;;8.85;5.65;;;;;;;0.84;62.00;102303.66;1757281;80;25473;-58
2022/03/01 10:41:49;;;;;;;11.60;5.75;;;;;;;0.86;61.95;102299.64;1757260;80;25747;-56
2022/03/01 10:44:22;;;;;;;9.00;5.60;;;;;;;0.85;62.02;102294.78;1760622;81;26069;-56
2022/03/01 10:46:53;;;;;;;12.45;5.70;;;;;;;0.89;62.33;102288.98;1752421;80;29754;-56
2022/03/01 10:49:35;;;;;;;9.60;6.03;;;;;;;0.87;61.80;102286.81;1750861;81;27397;-58
2022/03/01 10:52:08;;;;;;;9.10;4.15;;;;;;;0.89;61.68;102289.84;1749742;81;25754;-58
2022/03/01 10:54:42;;;;;;;14.57;6.73;;;;;;;0.94;61.73;102282.64;1752269;80;25715;-57
2022/03/01 10:57:12;;;;;;;10.93;5.83;;;;;;;0.88;61.51;102288.09;1762518;80;26064;-57
2022/03/01 10:59:40;;;;;;;10.68;5.10;;;;;;;0.84;61.76;102285.12;1762883;80;25788;-57
2022/03/01 11:02:07;;;;;;;20.62;6.15;;;;;;;0.81;61.78;102282.53;1762701;80;27473;-58
2022/03/01 11:04:35;;;;;;;11.53;5.53;;;;;;;0.85;61.80;102268.75;1761958;81;25799;-58
2022/03/01 11:07:05;;;;;;;10.70;5.58;;;;;;;0.81;61.51;102273.25;1761893;80;25474;-58
2022/03/01 11:09:34;;;;;;;13.43;6.47;;;;;;;0.73;61.37;102272.09;1762211;81;26043;-57
2022/03/01 11:12:04;;;;;;;13.80;5.45;;;;;;;0.75;61.60;102266.79;1763099;80;25786;-57
2022/03/01 11:15:09;;;;;;;10.53;5.75;;;;;;;0.79;61.67;102268.44;1761970;81;28142;-58
2022/03/01 11:18:02;;;;;;;11.85;5.28;;;;;;;0.73;61.99;102257.53;1759351;81;26295;-57
2022/03/01 11:20:36;;;;;;;8.45;5.08;;;;;;;0.81;61.92;102263.98;1757080;80;26094;-57
2022/03/01 11:23:10;;;;;;;8.68;5.60;;;;;;;0.86;61.78;102258.11;1757144;81;25771;-56
2022/03/01 11:25:41;;;;;;;11.18;5.95;;;;;;;0.88;61.60;102247.03;1756879;81;25722;-57
2022/03/01 11:28:10;;;;;;;9.25;5.15;;;;;;;0.86;61.04;102260.76;1757268;81;28696;-56
2022/03/01 11:30:47;;;;;;;11.40;6.50;;;;;;;0.88;61.13;102248.35;1751685;81;26445;-57
2022/03/01 11:33:19;;;;;;;20.45;7.00;;;;;;;0.87;61.04;102247.93;1725422;81;25761;-57